หน้าหลัก
METAR-TAF:

METAR-TAF

ท่าอากาศยาน :

เบอร์มิวดา, เบอร์มิวดา

ละติจูด: 32-22N, ลองจิจูด: 064-41W, ความสูง: 6 ม.

การสังเกตสภาพอากาศปัจจุบัน

รายงานได้ทำขึ้นเมื่อ 32 นาทีที่แล้ว ณ เวลา 07:55 UTC
ลม 7 นอตจากตะวันตก/ตะวันตกเฉียงใต้
อุณหภูมิ 19°C
ความชื้น 94%
ความกดอากาศ 1016 hPa
ทัศนวิสัย 10 กม. หรือมากกว่า
มีเมฆน้อยที่ความสูง 1300 ฟุต

METAR: TXKF 200755Z 25007KT 9999 FEW013 19/18 Q1016

เวลา: 05:27 (08:27 UTC)

การพยากรณ์

รายงานได้ทำขึ้นเมื่อ 2 ชั่วโมงและ 57 นาทีที่แล้ว ณ เวลา 05:30 UTC
การพยากรณ์มีผลตั้งแต่วันที่ 20 ณ เวลา 06 UTC จนถึงวันที่ 21 ณ เวลา 06 UTC
ลม 7 นอตจากตะวันตก/ตะวันตกเฉียงใต้
ทัศนวิสัย 10 กม. หรือมากกว่า
มีเมฆน้อยที่ความสูง 800 ฟุต
มีเมฆกระจายเป็นบางส่วนที่ความสูง 2000 ฟุต
ความน่าจะเป็น 30% :
ชั่วคราว
ตั้งแต่วันที่ 20 ณ เวลา 06 UTC จนถึงวันที่ 20 ณ เวลา 12 UTC
มีเมฆกระจายเป็นบางส่วนที่ความสูง 800 ฟุต
มีเมฆเป็นส่วนมากเว้นเป็นระยะที่ความสูง 1200 ฟุต

TAF: TXKF 200530Z 2006/2106 24007KT 9999 FEW008 SCT020 PROB30 TEMPO 2006/2012 SCT008 BKN012

สังเกตการณ์สภาพอากาศและพยากรณ์อากาศของสนามบินมากกว่า 4000 แห่ง (รายงาน METAR และ TAF).

สถานีที่ดูได้จะแสดงไว้ด้วยจุดสีเหลืองและสีแดงบนแผนที่.

เลื่อนเมาส์ไปเหนือจุดเพื่อดูชื่อสถานี.

แล้วคลิกเพื่อดูสังเกตการณ์และการพยากรณ์สภาพอากาศ.

ในการเปลี่ยนแผนที่: คลิกที่ปุ่มสีเขียวที่มีกากบาทสีดำเพื่อซูมเข้า; ที่ปุ่มสีเขียวที่มีขีดเพื่อซูมออก; หรือที่ลูกศรสีเขียวเพื่อไปยังแผนที่ที่อยู่ติดกัน.


METAR-TAF: